sensor_id;sensor_type;location;lat;lon;timestamp;temperature;humidity
41447;DHT22;27185;52.040;4.490;2023-04-25T00:02:14;9.30;99.90
41447;DHT22;27185;52.040;4.490;2023-04-25T00:05:01;9.20;99.90
41447;DHT22;27185;52.040;4.490;2023-04-25T00:07:50;9.20;99.90
41447;DHT22;27185;52.040;4.490;2023-04-25T00:10:36;9.10;99.90
41447;DHT22;27185;52.040;4.490;2023-04-25T00:13:22;9.10;99.90
41447;DHT22;27185;52.040;4.490;2023-04-25T00:16:07;9.00;99.90
41447;DHT22;27185;52.040;4.490;2023-04-25T00:18:53;9.00;99.90
41447;DHT22;27185;52.040;4.490;2023-04-25T00:21:39;8.90;99.90
41447;DHT22;27185;52.040;4.490;2023-04-25T00:24:25;8.90;99.90
41447;DHT22;27185;52.040;4.490;2023-04-25T00:27:11;8.90;99.90
41447;DHT22;27185;52.040;4.490;2023-04-25T00:29:56;8.80;99.90
41447;DHT22;27185;52.040;4.490;2023-04-25T00:32:42;8.80;99.90
41447;DHT22;27185;52.040;4.490;2023-04-25T00:35:27;8.80;99.90
41447;DHT22;27185;52.040;4.490;2023-04-25T00:38:13;8.70;99.90
41447;DHT22;27185;52.040;4.490;2023-04-25T00:40:59;8.70;99.90
41447;DHT22;27185;52.040;4.490;2023-04-25T00:43:45;8.70;99.90
41447;DHT22;27185;52.040;4.490;2023-04-25T00:46:32;8.70;99.90
41447;DHT22;27185;52.040;4.490;2023-04-25T00:49:18;8.70;99.90
41447;DHT22;27185;52.040;4.490;2023-04-25T00:52:04;8.60;99.90
41447;DHT22;27185;52.040;4.490;2023-04-25T00:54:51;8.60;99.90
41447;DHT22;27185;52.040;4.490;2023-04-25T00:57:37;8.60;99.90
41447;DHT22;27185;52.040;4.490;2023-04-25T01:00:22;8.60;99.90
41447;DHT22;27185;52.040;4.490;2023-04-25T01:03:08;8.50;99.90
41447;DHT22;27185;52.040;4.490;2023-04-25T01:05:55;8.50;99.90
41447;DHT22;27185;52.040;4.490;2023-04-25T01:08:41;8.50;99.90
41447;DHT22;27185;52.040;4.490;2023-04-25T01:11:27;8.50;99.90
41447;DHT22;27185;52.040;4.490;2023-04-25T01:14:13;8.50;99.90
41447;DHT22;27185;52.040;4.490;2023-04-25T01:16:58;8.50;99.90
41447;DHT22;27185;52.040;4.490;2023-04-25T01:19:44;8.40;99.90
41447;DHT22;27185;52.040;4.490;2023-04-25T01:22:32;8.40;99.90
41447;DHT22;27185;52.040;4.490;2023-04-25T01:25:18;8.40;99.90
41447;DHT22;27185;52.040;4.490;2023-04-25T01:28:04;8.40;99.90
41447;DHT22;27185;52.040;4.490;2023-04-25T01:30:50;8.40;99.90
41447;DHT22;27185;52.040;4.490;2023-04-25T01:33:37;8.30;99.90
41447;DHT22;27185;52.040;4.490;2023-04-25T01:36:22;8.30;99.90
41447;DHT22;27185;52.040;4.490;2023-04-25T01:39:08;8.30;99.90
41447;DHT22;27185;52.040;4.490;2023-04-25T01:41:54;8.30;99.90
41447;DHT22;27185;52.040;4.490;2023-04-25T01:44:40;8.30;99.90
41447;DHT22;27185;52.040;4.490;2023-04-25T01:47:25;8.30;99.90
41447;DHT22;27185;52.040;4.490;2023-04-25T01:50:11;8.30;99.90
41447;DHT22;27185;52.040;4.490;2023-04-25T01:52:57;8.40;99.90
41447;DHT22;27185;52.040;4.490;2023-04-25T01:55:42;8.40;99.90
41447;DHT22;27185;52.040;4.490;2023-04-25T01:58:28;8.50;99.90
41447;DHT22;27185;52.040;4.490;2023-04-25T02:01:13;8.50;99.90
41447;DHT22;27185;52.040;4.490;2023-04-25T02:03:59;8.60;99.90
41447;DHT22;27185;52.040;4.490;2023-04-25T02:06:45;8.60;99.90
41447;DHT22;27185;52.040;4.490;2023-04-25T02:09:31;8.60;99.90
41447;DHT22;27185;52.040;4.490;2023-04-25T02:12:16;8.70;99.90
41447;DHT22;27185;52.040;4.490;2023-04-25T02:15:02;8.70;99.90
41447;DHT22;27185;52.040;4.490;2023-04-25T02:17:48;8.70;99.90
41447;DHT22;27185;52.040;4.490;2023-04-25T02:20:34;8.80;99.90
41447;DHT22;27185;52.040;4.490;2023-04-25T02:23:20;8.80;99.90
41447;DHT22;27185;52.040;4.490;2023-04-25T02:26:06;8.80;99.90
41447;DHT22;27185;52.040;4.490;2023-04-25T02:28:51;8.80;99.90
41447;DHT22;27185;52.040;4.490;2023-04-25T02:31:37;8.80;99.90
41447;DHT22;27185;52.040;4.490;2023-04-25T02:34:22;8.80;99.90
41447;DHT22;27185;52.040;4.490;2023-04-25T02:37:08;8.90;99.90
41447;DHT22;27185;52.040;4.490;2023-04-25T02:39:53;8.90;99.90
41447;DHT22;27185;52.040;4.490;2023-04-25T02:42:39;8.90;99.90
41447;DHT22;27185;52.040;4.490;2023-04-25T02:45:25;8.90;99.90
41447;DHT22;27185;52.040;4.490;2023-04-25T02:48:10;8.90;99.90
41447;DHT22;27185;52.040;4.490;2023-04-25T02:50:56;8.90;99.90
41447;DHT22;27185;52.040;4.490;2023-04-25T02:53:41;8.90;99.90
41447;DHT22;27185;52.040;4.490;2023-04-25T02:56:27;8.90;99.90
41447;DHT22;27185;52.040;4.490;2023-04-25T02:59:13;9.00;99.90
41447;DHT22;27185;52.040;4.490;2023-04-25T03:01:58;9.00;99.90
41447;DHT22;27185;52.040;4.490;2023-04-25T03:04:44;9.10;99.90
41447;DHT22;27185;52.040;4.490;2023-04-25T03:07:29;9.10;99.90
41447;DHT22;27185;52.040;4.490;2023-04-25T03:10:15;9.10;99.90
41447;DHT22;27185;52.040;4.490;2023-04-25T03:13:00;9.20;99.90
41447;DHT22;27185;52.040;4.490;2023-04-25T03:15:46;9.20;99.90
41447;DHT22;27185;52.040;4.490;2023-04-25T03:18:31;9.20;99.90
41447;DHT22;27185;52.040;4.490;2023-04-25T03:21:17;9.20;99.90
41447;DHT22;27185;52.040;4.490;2023-04-25T03:24:04;9.20;99.90
41447;DHT22;27185;52.040;4.490;2023-04-25T03:26:50;9.30;99.90
41447;DHT22;27185;52.040;4.490;2023-04-25T03:29:35;9.30;99.90
41447;DHT22;27185;52.040;4.490;2023-04-25T03:32:21;9.30;99.90
41447;DHT22;27185;52.040;4.490;2023-04-25T03:35:07;9.30;99.90
41447;DHT22;27185;52.040;4.490;2023-04-25T03:37:52;9.40;99.90
41447;DHT22;27185;52.040;4.490;2023-04-25T03:40:38;9.40;99.90
41447;DHT22;27185;52.040;4.490;2023-04-25T03:43:23;9.30;99.90
41447;DHT22;27185;52.040;4.490;2023-04-25T03:46:09;9.30;99.90
41447;DHT22;27185;52.040;4.490;2023-04-25T03:48:54;9.40;99.90
41447;DHT22;27185;52.040;4.490;2023-04-25T03:51:40;9.40;99.90
41447;DHT22;27185;52.040;4.490;2023-04-25T03:54:25;9.40;99.90
41447;DHT22;27185;52.040;4.490;2023-04-25T03:57:11;9.40;99.90
41447;DHT22;27185;52.040;4.490;2023-04-25T03:59:57;9.40;99.90
41447;DHT22;27185;52.040;4.490;2023-04-25T04:02:42;9.40;99.90
41447;DHT22;27185;52.040;4.490;2023-04-25T04:05:28;9.40;99.90
41447;DHT22;27185;52.040;4.490;2023-04-25T04:08:14;9.40;99.90
41447;DHT22;27185;52.040;4.490;2023-04-25T04:10:59;9.40;99.90
41447;DHT22;27185;52.040;4.490;2023-04-25T04:13:45;9.40;99.90
41447;DHT22;27185;52.040;4.490;2023-04-25T04:16:31;9.40;99.90
41447;DHT22;27185;52.040;4.490;2023-04-25T04:19:16;9.40;99.90
41447;DHT22;27185;52.040;4.490;2023-04-25T04:22:02;9.40;99.90
41447;DHT22;27185;52.040;4.490;2023-04-25T04:24:47;9.40;99.90
41447;DHT22;27185;52.040;4.490;2023-04-25T04:27:35;9.40;99.90
41447;DHT22;27185;52.040;4.490;2023-04-25T04:30:22;9.40;99.90
41447;DHT22;27185;52.040;4.490;2023-04-25T04:33:09;9.40;99.90
41447;DHT22;27185;52.040;4.490;2023-04-25T04:35:54;9.30;99.90
41447;DHT22;27185;52.040;4.490;2023-04-25T04:38:41;9.30;99.90
41447;DHT22;27185;52.040;4.490;2023-04-25T04:41:27;9.30;99.90
41447;DHT22;27185;52.040;4.490;2023-04-25T04:44:13;9.20;99.90
41447;DHT22;27185;52.040;4.490;2023-04-25T04:46:59;9.20;99.90
41447;DHT22;27185;52.040;4.490;2023-04-25T04:49:45;9.20;99.90
41447;DHT22;27185;52.040;4.490;2023-04-25T04:52:30;9.20;99.90
41447;DHT22;27185;52.040;4.490;2023-04-25T04:55:16;9.20;99.90
41447;DHT22;27185;52.040;4.490;2023-04-25T04:58:01;9.20;99.90
41447;DHT22;27185;52.040;4.490;2023-04-25T05:00:47;9.20;99.90
41447;DHT22;27185;52.040;4.490;2023-04-25T05:03:33;9.20;99.90
41447;DHT22;27185;52.040;4.490;2023-04-25T05:06:19;9.10;99.90
41447;DHT22;27185;52.040;4.490;2023-04-25T05:09:04;9.10;99.90
41447;DHT22;27185;52.040;4.490;2023-04-25T05:11:50;9.10;99.90
41447;DHT22;27185;52.040;4.490;2023-04-25T05:14:36;9.10;99.90
41447;DHT22;27185;52.040;4.490;2023-04-25T05:17:21;9.00;99.90
41447;DHT22;27185;52.040;4.490;2023-04-25T05:20:07;9.00;99.90
41447;DHT22;27185;52.040;4.490;2023-04-25T05:22:54;9.00;99.90
41447;DHT22;27185;52.040;4.490;2023-04-25T05:25:40;9.10;99.90
41447;DHT22;27185;52.040;4.490;2023-04-25T05:28:25;9.00;99.90
41447;DHT22;27185;52.040;4.490;2023-04-25T05:31:11;9.00;99.90
41447;DHT22;27185;52.040;4.490;2023-04-25T05:33:57;9.00;99.90
41447;DHT22;27185;52.040;4.490;2023-04-25T05:36:42;9.00;99.90
41447;DHT22;27185;52.040;4.490;2023-04-25T05:39:28;9.00;99.90
41447;DHT22;27185;52.040;4.490;2023-04-25T05:42:14;9.00;99.90
41447;DHT22;27185;52.040;4.490;2023-04-25T05:44:59;9.00;99.90
41447;DHT22;27185;52.040;4.490;2023-04-25T05:47:45;9.00;99.90
41447;DHT22;27185;52.040;4.490;2023-04-25T05:50:31;9.00;99.90
41447;DHT22;27185;52.040;4.490;2023-04-25T05:53:17;9.10;99.90
41447;DHT22;27185;52.040;4.490;2023-04-25T05:56:03;9.00;99.90
41447;DHT22;27185;52.040;4.490;2023-04-25T05:58:49;9.00;99.90
41447;DHT22;27185;52.040;4.490;2023-04-25T06:01:34;9.00;99.90
41447;DHT22;27185;52.040;4.490;2023-04-25T06:04:20;8.90;99.90
41447;DHT22;27185;52.040;4.490;2023-04-25T06:07:06;8.80;99.90
41447;DHT22;27185;52.040;4.490;2023-04-25T06:09:51;8.70;99.90
41447;DHT22;27185;52.040;4.490;2023-04-25T06:12:37;8.60;99.90
41447;DHT22;27185;52.040;4.490;2023-04-25T06:15:23;8.40;99.90
41447;DHT22;27185;52.040;4.490;2023-04-25T06:18:09;8.30;99.90
41447;DHT22;27185;52.040;4.490;2023-04-25T06:20:55;8.30;99.90
41447;DHT22;27185;52.040;4.490;2023-04-25T06:23:41;8.30;99.90
41447;DHT22;27185;52.040;4.490;2023-04-25T06:26:26;8.30;99.90
41447;DHT22;27185;52.040;4.490;2023-04-25T06:29:12;8.30;99.90
41447;DHT22;27185;52.040;4.490;2023-04-25T06:31:58;8.40;99.90
41447;DHT22;27185;52.040;4.490;2023-04-25T06:34:44;8.50;99.90
41447;DHT22;27185;52.040;4.490;2023-04-25T06:37:29;8.60;99.90
41447;DHT22;27185;52.040;4.490;2023-04-25T06:40:15;8.70;99.90
41447;DHT22;27185;52.040;4.490;2023-04-25T06:43:02;8.90;99.90
41447;DHT22;27185;52.040;4.490;2023-04-25T06:45:48;8.90;99.90
41447;DHT22;27185;52.040;4.490;2023-04-25T06:48:33;9.00;99.90
41447;DHT22;27185;52.040;4.490;2023-04-25T06:51:19;9.10;99.90
41447;DHT22;27185;52.040;4.490;2023-04-25T06:54:05;9.20;99.90
41447;DHT22;27185;52.040;4.490;2023-04-25T06:56:51;9.20;99.90
41447;DHT22;27185;52.040;4.490;2023-04-25T06:59:36;9.30;99.90
41447;DHT22;27185;52.040;4.490;2023-04-25T07:02:22;9.30;99.90
41447;DHT22;27185;52.040;4.490;2023-04-25T07:05:07;9.30;99.90
41447;DHT22;27185;52.040;4.490;2023-04-25T07:07:53;9.20;99.90
41447;DHT22;27185;52.040;4.490;2023-04-25T07:10:39;9.20;99.90
41447;DHT22;27185;52.040;4.490;2023-04-25T07:13:25;9.20;99.90
41447;DHT22;27185;52.040;4.490;2023-04-25T07:16:10;9.20;99.90
41447;DHT22;27185;52.040;4.490;2023-04-25T07:18:56;9.30;99.90
41447;DHT22;27185;52.040;4.490;2023-04-25T07:21:42;9.40;99.90
41447;DHT22;27185;52.040;4.490;2023-04-25T07:24:27;9.50;99.90
41447;DHT22;27185;52.040;4.490;2023-04-25T07:27:13;9.60;99.90
41447;DHT22;27185;52.040;4.490;2023-04-25T07:29:58;9.80;99.90
41447;DHT22;27185;52.040;4.490;2023-04-25T07:32:44;9.90;99.90
41447;DHT22;27185;52.040;4.490;2023-04-25T07:35:30;10.00;99.90
41447;DHT22;27185;52.040;4.490;2023-04-25T07:38:16;10.00;99.90
41447;DHT22;27185;52.040;4.490;2023-04-25T07:41:01;10.00;99.90
41447;DHT22;27185;52.040;4.490;2023-04-25T07:43:47;10.10;99.90
41447;DHT22;27185;52.040;4.490;2023-04-25T07:46:33;10.10;99.90
41447;DHT22;27185;52.040;4.490;2023-04-25T07:49:18;10.20;99.90
41447;DHT22;27185;52.040;4.490;2023-04-25T07:52:04;10.30;99.90
41447;DHT22;27185;52.040;4.490;2023-04-25T07:54:51;10.40;99.90
41447;DHT22;27185;52.040;4.490;2023-04-25T07:57:37;10.50;99.90
41447;DHT22;27185;52.040;4.490;2023-04-25T08:00:23;10.60;99.90
41447;DHT22;27185;52.040;4.490;2023-04-25T08:03:09;10.80;99.90
41447;DHT22;27185;52.040;4.490;2023-04-25T08:05:55;10.90;99.90
41447;DHT22;27185;52.040;4.490;2023-04-25T08:08:40;11.00;99.90
41447;DHT22;27185;52.040;4.490;2023-04-25T08:11:26;11.10;99.90
41447;DHT22;27185;52.040;4.490;2023-04-25T08:14:12;11.10;99.90
41447;DHT22;27185;52.040;4.490;2023-04-25T08:16:58;11.10;99.90
41447;DHT22;27185;52.040;4.490;2023-04-25T08:19:44;11.00;99.90
41447;DHT22;27185;52.040;4.490;2023-04-25T08:22:30;11.00;99.90
41447;DHT22;27185;52.040;4.490;2023-04-25T08:25:15;11.00;99.90
41447;DHT22;27185;52.040;4.490;2023-04-25T08:28:01;11.10;99.90
41447;DHT22;27185;52.040;4.490;2023-04-25T08:30:48;11.20;99.90
41447;DHT22;27185;52.040;4.490;2023-04-25T08:33:33;11.30;99.90
41447;DHT22;27185;52.040;4.490;2023-04-25T08:36:19;11.40;99.90
41447;DHT22;27185;52.040;4.490;2023-04-25T08:39:05;11.50;99.90
41447;DHT22;27185;52.040;4.490;2023-04-25T08:41:51;11.50;99.90
41447;DHT22;27185;52.040;4.490;2023-04-25T08:44:37;11.40;99.90
41447;DHT22;27185;52.040;4.490;2023-04-25T08:47:24;11.30;99.90
41447;DHT22;27185;52.040;4.490;2023-04-25T08:50:10;11.30;99.90
41447;DHT22;27185;52.040;4.490;2023-04-25T08:52:58;11.40;99.90
41447;DHT22;27185;52.040;4.490;2023-04-25T08:55:47;11.40;99.90
41447;DHT22;27185;52.040;4.490;2023-04-25T08:58:33;11.40;99.90
41447;DHT22;27185;52.040;4.490;2023-04-25T09:01:20;11.40;99.90
41447;DHT22;27185;52.040;4.490;2023-04-25T09:04:05;11.50;99.90
41447;DHT22;27185;52.040;4.490;2023-04-25T09:06:51;11.60;99.90
41447;DHT22;27185;52.040;4.490;2023-04-25T09:09:36;11.70;99.90
41447;DHT22;27185;52.040;4.490;2023-04-25T09:12:22;11.70;99.90
41447;DHT22;27185;52.040;4.490;2023-04-25T09:15:10;11.70;99.90
41447;DHT22;27185;52.040;4.490;2023-04-25T09:17:56;11.80;99.90
41447;DHT22;27185;52.040;4.490;2023-04-25T09:20:43;11.70;99.90
41447;DHT22;27185;52.040;4.490;2023-04-25T09:23:29;11.70;99.90
41447;DHT22;27185;52.040;4.490;2023-04-25T09:26:19;11.70;99.90
41447;DHT22;27185;52.040;4.490;2023-04-25T09:29:08;11.70;99.90
41447;DHT22;27185;52.040;4.490;2023-04-25T09:31:57;11.70;99.90
41447;DHT22;27185;52.040;4.490;2023-04-25T09:34:56;11.80;99.90
41447;DHT22;27185;52.040;4.490;2023-04-25T09:37:42;11.90;99.90
41447;DHT22;27185;52.040;4.490;2023-04-25T09:40:30;12.00;99.90
41447;DHT22;27185;52.040;4.490;2023-04-25T09:43:22;12.30;99.90
41447;DHT22;27185;52.040;4.490;2023-04-25T09:46:10;12.70;99.90
41447;DHT22;27185;52.040;4.490;2023-04-25T09:48:56;12.90;99.90
41447;DHT22;27185;52.040;4.490;2023-04-25T09:51:41;13.00;99.90
41447;DHT22;27185;52.040;4.490;2023-04-25T09:54:27;13.00;99.90
41447;DHT22;27185;52.040;4.490;2023-04-25T09:57:23;12.90;99.90
41447;DHT22;27185;52.040;4.490;2023-04-25T10:00:10;12.70;99.90
41447;DHT22;27185;52.040;4.490;2023-04-25T10:03:00;12.50;99.90
41447;DHT22;27185;52.040;4.490;2023-04-25T10:05:48;12.30;99.90
41447;DHT22;27185;52.040;4.490;2023-04-25T10:08:36;12.40;99.90
41447;DHT22;27185;52.040;4.490;2023-04-25T10:11:24;12.60;99.90
41447;DHT22;27185;52.040;4.490;2023-04-25T10:14:12;13.00;99.90
41447;DHT22;27185;52.040;4.490;2023-04-25T10:16:59;13.30;99.90
41447;DHT22;27185;52.040;4.490;2023-04-25T10:19:45;13.30;99.90
41447;DHT22;27185;52.040;4.490;2023-04-25T10:22:35;13.10;99.90
41447;DHT22;27185;52.040;4.490;2023-04-25T10:25:22;12.90;99.90
41447;DHT22;27185;52.040;4.490;2023-04-25T10:28:08;12.70;99.90
41447;DHT22;27185;52.040;4.490;2023-04-25T10:31:00;12.70;99.90
41447;DHT22;27185;52.040;4.490;2023-04-25T10:33:46;12.90;99.90
41447;DHT22;27185;52.040;4.490;2023-04-25T10:36:33;13.30;99.90
41447;DHT22;27185;52.040;4.490;2023-04-25T10:39:24;13.60;99.90
41447;DHT22;27185;52.040;4.490;2023-04-25T10:42:11;14.00;99.90
41447;DHT22;27185;52.040;4.490;2023-04-25T10:45:06;14.20;99.80
41447;DHT22;27185;52.040;4.490;2023-04-25T10:47:52;14.20;95.80
41447;DHT22;27185;52.040;4.490;2023-04-25T10:50:38;14.10;98.40
41447;DHT22;27185;52.040;4.490;2023-04-25T10:53:25;14.20;97.90
41447;DHT22;27185;52.040;4.490;2023-04-25T10:56:18;14.30;97.60
41447;DHT22;27185;52.040;4.490;2023-04-25T10:59:06;14.50;95.10
41447;DHT22;27185;52.040;4.490;2023-04-25T11:01:52;14.70;95.10
41447;DHT22;27185;52.040;4.490;2023-04-25T11:04:40;14.90;96.00
41447;DHT22;27185;52.040;4.490;2023-04-25T11:07:35;15.00;93.60
41447;DHT22;27185;52.040;4.490;2023-04-25T11:10:41;15.00;92.10
41447;DHT22;27185;52.040;4.490;2023-04-25T11:13:29;15.10;88.90
41447;DHT22;27185;52.040;4.490;2023-04-25T11:16:16;15.20;92.60
41447;DHT22;27185;52.040;4.490;2023-04-25T11:19:02;15.30;93.20
41447;DHT22;27185;52.040;4.490;2023-04-25T11:21:48;15.40;93.70
41447;DHT22;27185;52.040;4.490;2023-04-25T11:24:36;15.50;93.10
41447;DHT22;27185;52.040;4.490;2023-04-25T11:27:22;15.60;92.70
41447;DHT22;27185;52.040;4.490;2023-04-25T11:30:14;15.70;92.90
41447;DHT22;27185;52.040;4.490;2023-04-25T11:33:00;15.80;91.30
41447;DHT22;27185;52.040;4.490;2023-04-25T11:35:48;15.90;92.00
41447;DHT22;27185;52.040;4.490;2023-04-25T11:38:34;16.00;92.60
41447;DHT22;27185;52.040;4.490;2023-04-25T11:41:20;16.00;91.80
41447;DHT22;27185;52.040;4.490;2023-04-25T11:44:07;16.00;91.10
41447;DHT22;27185;52.040;4.490;2023-04-25T11:46:53;16.00;89.80
41447;DHT22;27185;52.040;4.490;2023-04-25T11:49:38;15.80;90.10
41447;DHT22;27185;52.040;4.490;2023-04-25T11:52:24;15.60;90.00
41447;DHT22;27185;52.040;4.490;2023-04-25T11:55:14;15.60;91.70
41447;DHT22;27185;52.040;4.490;2023-04-25T11:58:00;15.70;89.00
41447;DHT22;27185;52.040;4.490;2023-04-25T12:00:45;15.70;90.90
41447;DHT22;27185;52.040;4.490;2023-04-25T12:03:31;15.80;91.70
41447;DHT22;27185;52.040;4.490;2023-04-25T12:06:18;15.90;90.60
41447;DHT22;27185;52.040;4.490;2023-04-25T12:09:04;15.90;89.30
41447;DHT22;27185;52.040;4.490;2023-04-25T12:11:54;15.60;90.00
41447;DHT22;27185;52.040;4.490;2023-04-25T12:14:40;15.30;86.70
41447;DHT22;27185;52.040;4.490;2023-04-25T12:17:26;15.20;91.30
41447;DHT22;27185;52.040;4.490;2023-04-25T12:20:15;15.10;90.70
41447;DHT22;27185;52.040;4.490;2023-04-25T12:23:05;15.10;91.10
41447;DHT22;27185;52.040;4.490;2023-04-25T12:25:52;15.10;91.00
41447;DHT22;27185;52.040;4.490;2023-04-25T12:28:38;15.20;91.10
41447;DHT22;27185;52.040;4.490;2023-04-25T12:31:23;15.10;90.80
41447;DHT22;27185;52.040;4.490;2023-04-25T12:34:09;15.00;91.90
41447;DHT22;27185;52.040;4.490;2023-04-25T12:36:55;15.10;92.40
41447;DHT22;27185;52.040;4.490;2023-04-25T12:39:41;15.20;92.20
41447;DHT22;27185;52.040;4.490;2023-04-25T12:42:27;15.20;91.20
41447;DHT22;27185;52.040;4.490;2023-04-25T12:45:13;15.10;91.60
41447;DHT22;27185;52.040;4.490;2023-04-25T12:47:58;15.00;91.80
41447;DHT22;27185;52.040;4.490;2023-04-25T12:50:44;15.00;92.30
41447;DHT22;27185;52.040;4.490;2023-04-25T12:53:30;15.10;92.30
41447;DHT22;27185;52.040;4.490;2023-04-25T12:56:15;15.20;91.90
41447;DHT22;27185;52.040;4.490;2023-04-25T12:59:01;15.40;92.10
41447;DHT22;27185;52.040;4.490;2023-04-25T13:01:48;15.60;91.90
41447;DHT22;27185;52.040;4.490;2023-04-25T13:04:33;15.80;91.30
41447;DHT22;27185;52.040;4.490;2023-04-25T13:07:19;15.80;90.10
41447;DHT22;27185;52.040;4.490;2023-04-25T13:10:05;15.60;90.30
41447;DHT22;27185;52.040;4.490;2023-04-25T13:12:51;15.50;91.10
41447;DHT22;27185;52.040;4.490;2023-04-25T13:15:37;15.50;92.20
41447;DHT22;27185;52.040;4.490;2023-04-25T13:18:23;15.50;91.60
41447;DHT22;27185;52.040;4.490;2023-04-25T13:21:11;15.50;91.30
41447;DHT22;27185;52.040;4.490;2023-04-25T13:23:57;15.60;91.00
41447;DHT22;27185;52.040;4.490;2023-04-25T13:26:43;15.50;91.30
41447;DHT22;27185;52.040;4.490;2023-04-25T13:29:29;15.40;91.90
41447;DHT22;27185;52.040;4.490;2023-04-25T13:32:14;15.40;90.90
41447;DHT22;27185;52.040;4.490;2023-04-25T13:35:00;15.10;91.70
41447;DHT22;27185;52.040;4.490;2023-04-25T13:37:46;15.00;91.80
41447;DHT22;27185;52.040;4.490;2023-04-25T13:40:31;14.80;92.60
41447;DHT22;27185;52.040;4.490;2023-04-25T13:43:18;14.70;92.40
41447;DHT22;27185;52.040;4.490;2023-04-25T13:46:04;14.60;93.30
41447;DHT22;27185;52.040;4.490;2023-04-25T13:48:50;14.60;91.70
41447;DHT22;27185;52.040;4.490;2023-04-25T13:51:35;14.70;93.80
41447;DHT22;27185;52.040;4.490;2023-04-25T13:54:21;14.80;93.20
41447;DHT22;27185;52.040;4.490;2023-04-25T13:57:06;15.00;92.80
41447;DHT22;27185;52.040;4.490;2023-04-25T13:59:52;15.10;92.90
41447;DHT22;27185;52.040;4.490;2023-04-25T14:02:39;15.20;91.10
41447;DHT22;27185;52.040;4.490;2023-04-25T14:05:24;15.30;91.90
41447;DHT22;27185;52.040;4.490;2023-04-25T14:08:10;15.50;91.20
41447;DHT22;27185;52.040;4.490;2023-04-25T14:10:55;15.50;91.90
41447;DHT22;27185;52.040;4.490;2023-04-25T14:13:41;15.70;91.50
41447;DHT22;27185;52.040;4.490;2023-04-25T14:16:27;15.80;90.50
41447;DHT22;27185;52.040;4.490;2023-04-25T14:19:13;15.90;90.20
41447;DHT22;27185;52.040;4.490;2023-04-25T14:21:58;15.90;88.20
41447;DHT22;27185;52.040;4.490;2023-04-25T14:24:44;15.90;85.80
41447;DHT22;27185;52.040;4.490;2023-04-25T14:27:30;15.80;86.10
41447;DHT22;27185;52.040;4.490;2023-04-25T14:30:20;15.80;85.70
41447;DHT22;27185;52.040;4.490;2023-04-25T14:33:05;15.80;83.10
41447;DHT22;27185;52.040;4.490;2023-04-25T14:35:51;15.80;86.50
41447;DHT22;27185;52.040;4.490;2023-04-25T14:38:38;15.80;87.90
41447;DHT22;27185;52.040;4.490;2023-04-25T14:41:27;15.90;90.00
41447;DHT22;27185;52.040;4.490;2023-04-25T14:44:12;16.00;86.70
41447;DHT22;27185;52.040;4.490;2023-04-25T14:46:58;16.20;91.40
41447;DHT22;27185;52.040;4.490;2023-04-25T14:49:44;16.40;90.70
41447;DHT22;27185;52.040;4.490;2023-04-25T14:52:31;16.50;89.30
41447;DHT22;27185;52.040;4.490;2023-04-25T14:55:17;16.50;84.40
41447;DHT22;27185;52.040;4.490;2023-04-25T14:58:03;16.20;84.40
41447;DHT22;27185;52.040;4.490;2023-04-25T15:00:48;15.80;84.00
41447;DHT22;27185;52.040;4.490;2023-04-25T15:03:34;15.40;86.00
41447;DHT22;27185;52.040;4.490;2023-04-25T15:06:19;15.00;87.10
41447;DHT22;27185;52.040;4.490;2023-04-25T15:09:05;14.70;88.20
41447;DHT22;27185;52.040;4.490;2023-04-25T15:11:51;14.40;89.50
41447;DHT22;27185;52.040;4.490;2023-04-25T15:14:37;14.20;90.00
41447;DHT22;27185;52.040;4.490;2023-04-25T15:17:22;14.10;91.20
41447;DHT22;27185;52.040;4.490;2023-04-25T15:20:10;14.00;90.60
41447;DHT22;27185;52.040;4.490;2023-04-25T15:22:57;13.90;90.60
41447;DHT22;27185;52.040;4.490;2023-04-25T15:25:43;13.70;87.10
41447;DHT22;27185;52.040;4.490;2023-04-25T15:28:29;13.60;93.00
41447;DHT22;27185;52.040;4.490;2023-04-25T15:31:14;13.60;93.50
41447;DHT22;27185;52.040;4.490;2023-04-25T15:34:00;13.70;94.30
41447;DHT22;27185;52.040;4.490;2023-04-25T15:36:45;14.00;95.30
41447;DHT22;27185;52.040;4.490;2023-04-25T15:39:31;14.30;94.60
41447;DHT22;27185;52.040;4.490;2023-04-25T15:42:16;14.60;93.10
41447;DHT22;27185;52.040;4.490;2023-04-25T15:45:04;14.80;93.30
41447;DHT22;27185;52.040;4.490;2023-04-25T15:47:50;15.00;92.60
41447;DHT22;27185;52.040;4.490;2023-04-25T15:50:37;15.20;92.40
41447;DHT22;27185;52.040;4.490;2023-04-25T15:53:22;15.30;92.50
41447;DHT22;27185;52.040;4.490;2023-04-25T15:56:08;15.50;92.90
41447;DHT22;27185;52.040;4.490;2023-04-25T15:58:54;15.70;91.70
41447;DHT22;27185;52.040;4.490;2023-04-25T16:01:39;15.90;91.70
41447;DHT22;27185;52.040;4.490;2023-04-25T16:04:25;15.90;90.70
41447;DHT22;27185;52.040;4.490;2023-04-25T16:07:13;16.00;90.60
41447;DHT22;27185;52.040;4.490;2023-04-25T16:09:58;16.10;91.10
41447;DHT22;27185;52.040;4.490;2023-04-25T16:12:44;16.30;91.00
41447;DHT22;27185;52.040;4.490;2023-04-25T16:15:32;16.20;90.50
41447;DHT22;27185;52.040;4.490;2023-04-25T16:18:17;16.20;89.90
41447;DHT22;27185;52.040;4.490;2023-04-25T16:21:03;15.90;87.90
41447;DHT22;27185;52.040;4.490;2023-04-25T16:23:49;15.70;89.90
41447;DHT22;27185;52.040;4.490;2023-04-25T16:26:35;15.60;92.00
41447;DHT22;27185;52.040;4.490;2023-04-25T16:29:21;15.60;90.40
41447;DHT22;27185;52.040;4.490;2023-04-25T16:32:07;15.50;87.60
41447;DHT22;27185;52.040;4.490;2023-04-25T16:34:52;15.50;89.00
41447;DHT22;27185;52.040;4.490;2023-04-25T16:37:38;15.40;89.00
41447;DHT22;27185;52.040;4.490;2023-04-25T16:40:24;15.20;86.00
41447;DHT22;27185;52.040;4.490;2023-04-25T16:43:09;15.00;86.50
41447;DHT22;27185;52.040;4.490;2023-04-25T16:45:55;14.70;88.30
41447;DHT22;27185;52.040;4.490;2023-04-25T16:48:40;14.50;88.60
41447;DHT22;27185;52.040;4.490;2023-04-25T16:51:26;14.30;90.00
41447;DHT22;27185;52.040;4.490;2023-04-25T16:54:12;14.20;91.60
41447;DHT22;27185;52.040;4.490;2023-04-25T16:56:58;14.10;91.70
41447;DHT22;27185;52.040;4.490;2023-04-25T16:59:44;14.00;91.60
41447;DHT22;27185;52.040;4.490;2023-04-25T17:02:30;13.90;92.50
41447;DHT22;27185;52.040;4.490;2023-04-25T17:05:16;14.00;93.20
41447;DHT22;27185;52.040;4.490;2023-04-25T17:08:01;14.20;94.30
41447;DHT22;27185;52.040;4.490;2023-04-25T17:10:48;14.30;93.50
41447;DHT22;27185;52.040;4.490;2023-04-25T17:13:34;14.40;92.90
41447;DHT22;27185;52.040;4.490;2023-04-25T17:16:20;14.50;93.40
41447;DHT22;27185;52.040;4.490;2023-04-25T17:19:07;14.50;92.40
41447;DHT22;27185;52.040;4.490;2023-04-25T17:21:53;14.30;92.10
41447;DHT22;27185;52.040;4.490;2023-04-25T17:24:38;14.10;92.20
41447;DHT22;27185;52.040;4.490;2023-04-25T17:27:24;13.90;91.80
41447;DHT22;27185;52.040;4.490;2023-04-25T17:30:10;13.60;92.60
41447;DHT22;27185;52.040;4.490;2023-04-25T17:32:58;13.20;92.90
41447;DHT22;27185;52.040;4.490;2023-04-25T17:35:43;13.00;93.30
41447;DHT22;27185;52.040;4.490;2023-04-25T17:38:29;12.80;94.30